Time;durP1;ratioP1;P1;durP2;ratioP2;P2;SDS_P1;SDS_P2;PMS_P1;PMS_P2;Temp;Humidity;BMP_temperature;BMP_pressure;BME280_temperature;BME280_humidity;BME280_pressure;Samples;Min_cycle;Max_cycle;Signal;HPM_P1;HPM_P2
2023/12/03 00:00:55;;;;;;;37.85;29.90;;;22.70;66.70;;;;;;6239587;28;89189;-60
2023/12/03 00:03:57;;;;;;;39.50;30.02;;;22.70;67.00;;;;;;6222494;28;90190;-60
2023/12/03 00:06:59;;;;;;;37.88;29.05;;;22.70;67.10;;;;;;6207851;28;89072;-59
2023/12/03 00:10:01;;;;;;;36.22;27.70;;;22.70;67.20;;;;;;6210605;28;88052;-60
2023/12/03 00:13:03;;;;;;;35.05;27.10;;;22.70;67.50;;;;;;6220212;28;89156;-59
2023/12/03 00:16:08;;;;;;;36.40;27.20;;;22.70;67.60;;;;;;6221511;28;89449;-60
2023/12/03 00:19:10;;;;;;;33.55;26.40;;;22.70;67.80;;;;;;6205593;28;91129;-59
2023/12/03 00:22:12;;;;;;;32.53;25.15;;;22.70;68.00;;;;;;6218052;28;89137;-60
2023/12/03 00:25:14;;;;;;;31.25;24.52;;;22.80;68.20;;;;;;6216275;28;88118;-60
2023/12/03 00:28:17;;;;;;;28.40;22.45;;;22.70;68.30;;;;;;6216499;28;89121;-59
2023/12/03 00:31:20;;;;;;;32.08;23.42;;;22.70;68.40;;;;;;6206223;28;89030;-59
2023/12/03 00:34:22;;;;;;;29.63;22.90;;;22.70;68.50;;;;;;6206222;28;90338;-59
2023/12/03 00:37:24;;;;;;;28.98;22.02;;;22.70;69.30;;;;;;6208957;28;89094;-60
2023/12/03 00:40:26;;;;;;;27.08;21.38;;;22.70;68.80;;;;;;6217125;28;89102;-59
2023/12/03 00:43:28;;;;;;;27.70;20.05;;;22.70;69.00;;;;;;6205742;28;89099;-59
2023/12/03 00:46:31;;;;;;;25.48;19.80;;;22.60;69.00;;;;;;6211794;28;89260;-59
2023/12/03 00:49:33;;;;;;;26.15;19.38;;;22.70;69.10;;;;;;6210995;28;89129;-59
2023/12/03 00:52:35;;;;;;;27.98;19.67;;;22.70;69.20;;;;;;6205217;28;89174;-59
2023/12/03 00:55:37;;;;;;;24.05;18.58;;;22.70;69.30;;;;;;6207900;28;88411;-59
2023/12/03 00:58:39;;;;;;;21.77;17.20;;;22.70;69.30;;;;;;6240245;28;87980;-59
2023/12/03 01:01:42;;;;;;;21.25;17.63;;;22.70;69.40;;;;;;6222527;28;89038;-60
2023/12/03 01:04:44;;;;;;;21.98;17.17;;;22.70;69.40;;;;;;6214184;28;89967;-60
2023/12/03 01:07:46;;;;;;;22.00;17.00;;;22.70;69.40;;;;;;6211864;28;89114;-60
2023/12/03 01:10:48;;;;;;;19.00;15.38;;;22.60;69.40;;;;;;6221363;28;89121;-60
2023/12/03 01:13:50;;;;;;;18.20;14.85;;;22.70;69.60;;;;;;6215064;28;89106;-60
2023/12/03 01:16:53;;;;;;;17.80;14.88;;;22.60;69.60;;;;;;6228363;28;89328;-60
2023/12/03 01:19:55;;;;;;;24.10;16.33;;;22.70;69.80;;;;;;6227438;28;89075;-59
2023/12/03 01:22:57;;;;;;;16.38;13.43;;;22.70;69.90;;;;;;6215084;28;89000;-60
2023/12/03 01:25:59;;;;;;;17.70;13.90;;;22.70;70.00;;;;;;6224858;28;88316;-60
2023/12/03 01:29:01;;;;;;;16.38;13.35;;;22.60;69.90;;;;;;6222618;28;89112;-60
2023/12/03 01:32:05;;;;;;;21.85;14.65;;;22.60;70.00;;;;;;6221777;28;89565;-59
2023/12/03 01:35:07;;;;;;;16.10;12.57;;;22.60;70.10;;;;;;6222505;28;89956;-59
2023/12/03 01:38:09;;;;;;;16.13;12.57;;;22.60;70.10;;;;;;6220131;28;87981;-59
2023/12/03 01:41:11;;;;;;;15.85;12.25;;;22.70;70.30;;;;;;6216360;28;89038;-60
2023/12/03 01:44:13;;;;;;;15.55;12.55;;;22.60;70.20;;;;;;6221453;28;89088;-59
2023/12/03 01:47:17;;;;;;;13.20;11.05;;;22.60;70.20;;;;;;6225662;28;89134;-59
2023/12/03 01:50:21;;;;;;;15.38;10.88;;;22.60;70.20;;;;;;6219905;28;89068;-59
2023/12/03 01:53:23;;;;;;;13.40;10.85;;;22.60;71.10;;;;;;6221743;28;89206;-59
2023/12/03 01:56:25;;;;;;;14.65;11.43;;;22.60;70.20;;;;;;6222338;28;88272;-59
2023/12/03 01:59:27;;;;;;;15.25;11.30;;;22.60;70.20;;;;;;6220115;28;88994;-59
2023/12/03 02:02:31;;;;;;;18.25;11.57;;;22.60;70.30;;;;;;6221742;28;90104;-59
2023/12/03 02:05:33;;;;;;;15.43;10.65;;;22.60;70.30;;;;;;6211995;28;90014;-58
2023/12/03 02:08:35;;;;;;;19.45;11.90;;;22.60;70.30;;;;;;6221781;28;89096;-59
2023/12/03 02:11:40;;;;;;;16.02;10.48;;;22.60;70.30;;;;;;6222280;28;89006;-59
2023/12/03 02:14:42;;;;;;;19.15;11.98;;;22.60;70.30;;;;;;6213528;28;89046;-59
2023/12/03 02:17:46;;;;;;;13.35;9.65;;;22.60;70.40;;;;;;6223503;28;89722;-60
2023/12/03 02:20:48;;;;;;;15.45;10.35;;;22.70;70.50;;;;;;6223721;28;89250;-59
2023/12/03 02:23:51;;;;;;;13.30;9.68;;;22.70;70.50;;;;;;6222590;28;89082;-59
2023/12/03 02:26:53;;;;;;;11.27;9.18;;;22.70;70.50;;;;;;6221730;28;88382;-58
2023/12/03 02:29:55;;;;;;;12.52;9.52;;;22.70;70.50;;;;;;6215137;28;89039;-59
2023/12/03 02:32:57;;;;;;;12.65;10.13;;;22.70;70.60;;;;;;6219402;28;88109;-59
2023/12/03 02:36:01;;;;;;;11.55;8.75;;;22.70;70.50;;;;;;6212084;28;90005;-59
2023/12/03 02:39:05;;;;;;;11.43;8.85;;;22.70;70.50;;;;;;6219891;28;89062;-59
2023/12/03 02:42:07;;;;;;;11.27;8.88;;;22.60;70.30;;;;;;6217774;28;88082;-60
2023/12/03 02:45:10;;;;;;;10.35;8.30;;;22.70;70.30;;;;;;6221465;28;89086;-59
2023/12/03 02:48:12;;;;;;;11.27;8.30;;;22.70;70.30;;;;;;6227814;28;89166;-60
2023/12/03 02:51:14;;;;;;;12.20;9.13;;;22.70;70.30;;;;;;6225117;28;89546;-59
2023/12/03 02:54:17;;;;;;;9.25;7.88;;;22.70;70.20;;;;;;6218967;28;89198;-59
2023/12/03 02:57:19;;;;;;;11.70;8.65;;;22.70;70.10;;;;;;6226620;28;89190;-59
2023/12/03 03:00:21;;;;;;;10.48;8.30;;;22.70;70.10;;;;;;6228057;28;88314;-58
2023/12/03 03:03:23;;;;;;;9.63;8.00;;;22.70;70.20;;;;;;6203777;28;89025;-59
2023/12/03 03:06:25;;;;;;;10.80;8.18;;;22.70;70.10;;;;;;6218766;28;89098;-59
2023/12/03 03:09:28;;;;;;;9.48;8.13;;;22.70;70.10;;;;;;6225048;28;88984;-59
2023/12/03 03:12:30;;;;;;;8.60;7.15;;;22.70;70.10;;;;;;6217561;28;89310;-59
2023/12/03 03:15:32;;;;;;;10.60;8.10;;;22.70;70.10;;;;;;6223943;28;89095;-59
2023/12/03 03:18:38;;;;;;;11.32;7.90;;;22.70;70.10;;;;;;6226467;28;88948;-59
2023/12/03 03:21:41;;;;;;;10.63;7.82;;;22.70;70.10;;;;;;6220923;28;89237;-59
2023/12/03 03:24:44;;;;;;;8.80;7.47;;;22.70;70.10;;;;;;6214497;28;90591;-60
2023/12/03 03:27:46;;;;;;;10.40;7.80;;;22.70;70.10;;;;;;6213472;28;88389;-59
2023/12/03 03:30:48;;;;;;;7.85;7.03;;;22.70;70.10;;;;;;6213635;28;89171;-60
2023/12/03 03:33:51;;;;;;;8.98;6.88;;;22.70;70.10;;;;;;6228616;28;89649;-60
2023/12/03 03:36:53;;;;;;;8.45;7.50;;;22.70;70.20;;;;;;6213581;28;90166;-59
2023/12/03 03:39:56;;;;;;;8.57;7.20;;;22.70;70.20;;;;;;6222332;28;89153;-59
2023/12/03 03:42:58;;;;;;;9.77;7.40;;;22.70;70.20;;;;;;6211852;28;89102;-59
2023/12/03 03:46:00;;;;;;;10.13;7.07;;;22.70;70.20;;;;;;6215923;28;89182;-59
2023/12/03 03:49:02;;;;;;;8.82;7.05;;;22.70;70.30;;;;;;6218313;28;89323;-59
2023/12/03 03:52:05;;;;;;;8.30;6.85;;;22.70;70.30;;;;;;6217706;28;89170;-59
2023/12/03 03:55:09;;;;;;;8.60;6.68;;;22.70;70.30;;;;;;6210490;28;87991;-60
2023/12/03 03:58:11;;;;;;;8.57;7.13;;;22.70;70.30;;;;;;6223267;28;88302;-59
2023/12/03 04:01:16;;;;;;;8.10;6.80;;;22.60;70.30;;;;;;6201458;28;89040;-59
2023/12/03 04:04:18;;;;;;;7.32;6.32;;;22.70;70.20;;;;;;6222548;28;89336;-59
2023/12/03 04:07:20;;;;;;;13.48;8.65;;;22.70;69.60;;;;;;6222270;28;89946;-60
2023/12/03 04:10:24;;;;;;;10.15;7.05;;;22.70;70.00;;;;;;6225713;28;87875;-59
2023/12/03 04:13:26;;;;;;;7.95;6.65;;;22.70;70.10;;;;;;6212059;28;89134;-60
2023/12/03 04:16:28;;;;;;;10.90;6.43;;;22.70;70.20;;;;;;6219735;28;89139;-60
2023/12/03 04:19:29;;;;;;;7.80;6.28;;;22.60;70.30;;;;;;6219231;28;90927;-60
2023/12/03 04:22:31;;;;;;;6.50;5.80;;;22.70;70.30;;;;;;6221221;28;89202;-60
2023/12/03 04:25:35;;;;;;;6.68;5.97;;;22.70;70.30;;;;;;6212673;28;89164;-59
2023/12/03 04:28:40;;;;;;;8.85;6.15;;;22.60;70.30;;;;;;6219591;28;87247;-59
2023/12/03 04:31:42;;;;;;;10.10;7.00;;;22.70;70.40;;;;;;6220856;28;89551;-59
2023/12/03 04:34:44;;;;;;;7.03;5.85;;;22.70;70.30;;;;;;6214969;28;89076;-59
2023/12/03 04:37:46;;;;;;;9.27;6.13;;;22.70;70.40;;;;;;6213721;28;90017;-60
2023/12/03 04:40:49;;;;;;;6.55;5.60;;;22.70;70.50;;;;;;6216777;28;89352;-59
2023/12/03 04:43:53;;;;;;;7.22;5.75;;;22.70;70.50;;;;;;6212024;28;89041;-59
2023/12/03 04:46:55;;;;;;;7.25;6.07;;;22.70;70.60;;;;;;6214478;28;89333;-59
2023/12/03 04:49:57;;;;;;;7.50;6.13;;;22.70;70.60;;;;;;6224529;28;89220;-59
2023/12/03 04:52:59;;;;;;;7.97;6.15;;;22.70;70.60;;;;;;6216343;28;89184;-59
2023/12/03 04:56:02;;;;;;;6.75;5.43;;;22.70;70.60;;;;;;6218063;28;89168;-59
2023/12/03 04:59:07;;;;;;;7.35;6.28;;;22.70;70.60;;;;;;6221458;28;86958;-59
2023/12/03 05:02:09;;;;;;;7.82;7.03;;;22.70;72.00;;;;;;6206977;28;89299;-60
2023/12/03 05:05:11;;;;;;;6.90;5.97;;;22.70;74.40;;;;;;6209227;28;89164;-59
2023/12/03 05:08:13;;;;;;;7.88;6.35;;;22.80;72.70;;;;;;6216097;28;90021;-59
2023/12/03 05:11:16;;;;;;;9.45;6.30;;;22.80;71.30;;;;;;6217952;28;88103;-59
2023/12/03 05:14:18;;;;;;;6.70;5.88;;;22.90;70.90;;;;;;6212091;28;89227;-59
2023/12/03 05:17:20;;;;;;;6.93;5.95;;;22.90;70.80;;;;;;6221303;28;89089;-59
2023/12/03 05:20:25;;;;;;;6.85;5.47;;;22.90;70.70;;;;;;6221325;28;89159;-59
2023/12/03 05:23:27;;;;;;;6.43;5.68;;;22.90;70.60;;;;;;6218069;28;89429;-59
2023/12/03 05:26:30;;;;;;;6.47;5.22;;;22.90;70.60;;;;;;6215346;28;89204;-59
2023/12/03 05:29:32;;;;;;;12.63;6.93;;;22.90;70.70;;;;;;6217633;28;88399;-60
2023/12/03 05:32:34;;;;;;;5.93;4.75;;;22.90;69.30;;;;;;6226542;28;89101;-59
2023/12/03 05:35:36;;;;;;;7.03;5.10;;;22.90;66.90;;;;;;6218207;28;89665;-60
2023/12/03 05:38:38;;;;;;;6.13;4.80;;;22.90;67.10;;;;;;6228044;28;90127;-60
2023/12/03 05:41:42;;;;;;;5.35;4.80;;;22.80;67.40;;;;;;6217123;28;89050;-60
2023/12/03 05:44:44;;;;;;;4.88;4.38;;;22.90;67.90;;;;;;6221071;28;89272;-60
2023/12/03 05:47:46;;;;;;;4.95;4.47;;;22.80;67.90;;;;;;6233287;28;89332;-60
2023/12/03 05:50:48;;;;;;;5.57;4.53;;;22.90;68.10;;;;;;6230420;28;89225;-60
2023/12/03 05:53:50;;;;;;;12.60;6.75;;;22.90;68.20;;;;;;6229026;28;87942;-59
2023/12/03 05:56:53;;;;;;;6.72;4.80;;;22.80;68.10;;;;;;6231791;28;89337;-60
2023/12/03 05:59:55;;;;;;;5.55;4.93;;;22.80;68.20;;;;;;6221048;28;88715;-60
2023/12/03 06:02:59;;;;;;;6.03;5.20;;;22.80;68.20;;;;;;6219425;28;88966;-60
2023/12/03 06:06:01;;;;;;;6.85;4.97;;;22.80;68.30;;;;;;6220718;28;89449;-60
2023/12/03 06:09:04;;;;;;;5.18;4.65;;;22.80;68.30;;;;;;6234453;28;89960;-60
2023/12/03 06:12:08;;;;;;;5.22;4.72;;;22.80;68.30;;;;;;6234992;28;89135;-60
2023/12/03 06:15:10;;;;;;;5.88;4.70;;;22.80;68.30;;;;;;6218239;28;89153;-60
2023/12/03 06:18:12;;;;;;;5.35;4.85;;;22.80;68.30;;;;;;6230807;28;89671;-60
2023/12/03 06:21:14;;;;;;;5.20;4.70;;;22.80;68.30;;;;;;6216838;28;89025;-60
2023/12/03 06:24:16;;;;;;;5.68;5.10;;;22.80;68.40;;;;;;6226069;28;89135;-60
2023/12/03 06:27:20;;;;;;;5.90;5.05;;;22.80;68.40;;;;;;6217801;28;89054;-60
2023/12/03 06:30:24;;;;;;;6.70;5.38;;;22.80;68.40;;;;;;6236589;28;87403;-59
2023/12/03 06:33:27;;;;;;;5.88;5.03;;;22.80;68.40;;;;;;6234355;28;89010;-60
2023/12/03 06:36:28;;;;;;;6.20;5.47;;;22.80;68.40;;;;;;6236116;28;89161;-60
2023/12/03 06:39:30;;;;;;;7.00;5.20;;;22.80;68.40;;;;;;6229508;28;90118;-60
2023/12/03 06:42:34;;;;;;;5.75;4.88;;;22.80;68.50;;;;;;6206691;28;89144;-60
2023/12/03 06:45:37;;;;;;;5.35;4.85;;;22.80;68.60;;;;;;6228036;28;89295;-60
2023/12/03 06:48:42;;;;;;;6.05;5.45;;;22.80;68.60;;;;;;6231542;28;89470;-60
2023/12/03 06:51:44;;;;;;;5.78;5.15;;;22.80;68.60;;;;;;6228568;28;87918;-60
2023/12/03 06:54:45;;;;;;;5.53;4.90;;;22.70;68.60;;;;;;6221680;28;89105;-60
2023/12/03 06:57:49;;;;;;;6.03;5.22;;;22.70;68.70;;;;;;6224107;28;89392;-60
2023/12/03 07:00:51;;;;;;;6.20;5.43;;;22.70;69.60;;;;;;6226536;28;89035;-60
2023/12/03 07:03:53;;;;;;;5.90;5.30;;;22.70;68.80;;;;;;6218922;28;89374;-60
2023/12/03 07:06:55;;;;;;;7.22;5.75;;;22.70;68.90;;;;;;6229816;28;89224;-60
2023/12/03 07:09:57;;;;;;;6.22;5.03;;;22.70;68.90;;;;;;6212184;28;90131;-60
2023/12/03 07:13:01;;;;;;;6.10;5.50;;;22.60;68.90;;;;;;6215585;28;89188;-60
2023/12/03 07:16:03;;;;;;;8.48;6.35;;;22.70;69.00;;;;;;6212066;28;89044;-60
2023/12/03 07:19:08;;;;;;;6.38;5.70;;;22.60;69.00;;;;;;6211854;28;89145;-60
2023/12/03 07:22:09;;;;;;;6.63;5.93;;;22.60;69.10;;;;;;6211320;28;89119;-60
2023/12/03 07:25:11;;;;;;;6.72;5.80;;;22.60;69.10;;;;;;6211195;28;89099;-60
2023/12/03 07:28:15;;;;;;;8.48;6.03;;;22.60;69.10;;;;;;6216677;28;89223;-60
2023/12/03 07:31:18;;;;;;;9.55;6.68;;;22.60;69.20;;;;;;6229488;28;88465;-60
2023/12/03 07:34:20;;;;;;;6.38;5.50;;;22.60;69.10;;;;;;6224908;28;89497;-60
2023/12/03 07:37:22;;;;;;;9.98;6.68;;;22.60;69.20;;;;;;6209980;28;89204;-60
2023/12/03 07:40:24;;;;;;;6.72;5.63;;;22.60;69.20;;;;;;6207245;28;90414;-60
2023/12/03 07:43:27;;;;;;;6.10;5.50;;;22.60;69.30;;;;;;6204561;28;89057;-60
2023/12/03 07:46:29;;;;;;;7.07;5.82;;;22.60;69.10;;;;;;6193798;28;89318;-60
2023/12/03 07:49:31;;;;;;;6.40;5.78;;;22.60;69.20;;;;;;6206863;28;89182;-60
2023/12/03 07:52:33;;;;;;;7.30;6.20;;;22.60;69.10;;;;;;6192380;28;90452;-60
2023/12/03 07:55:35;;;;;;;9.50;6.70;;;22.60;69.10;;;;;;6194139;28;89106;-60
2023/12/03 07:58:38;;;;;;;7.30;5.80;;;22.70;69.20;;;;;;6195392;28;89043;-59
2023/12/03 08:01:40;;;;;;;6.28;5.68;;;22.70;69.20;;;;;;6195118;28;88332;-60
2023/12/03 08:04:43;;;;;;;6.72;5.85;;;22.70;69.10;;;;;;6205335;28;88630;-60
2023/12/03 08:07:45;;;;;;;7.13;6.30;;;22.60;69.10;;;;;;6185122;28;89212;-60
2023/12/03 08:10:47;;;;;;;5.97;5.32;;;22.60;69.10;;;;;;6225450;28;90171;-60
2023/12/03 08:13:50;;;;;;;7.35;5.65;;;22.60;69.00;;;;;;6224840;28;89055;-60
2023/12/03 08:16:52;;;;;;;7.95;6.22;;;22.60;69.10;;;;;;6222906;28;88847;-60
2023/12/03 08:19:54;;;;;;;6.43;5.72;;;22.70;69.10;;;;;;6231070;28;89205;-60
2023/12/03 08:22:56;;;;;;;6.88;5.82;;;22.70;69.10;;;;;;6222821;28;89119;-60
2023/12/03 08:25:58;;;;;;;7.30;6.13;;;22.70;69.10;;;;;;6222940;28;89064;-60
2023/12/03 08:29:03;;;;;;;6.35;5.72;;;22.70;69.00;;;;;;6222062;28;89076;-60
2023/12/03 08:32:05;;;;;;;6.55;5.85;;;22.70;69.00;;;;;;6225870;28;88372;-60
2023/12/03 08:35:08;;;;;;;6.25;5.65;;;22.70;68.90;;;;;;6225320;28;87872;-60
2023/12/03 08:38:10;;;;;;;6.43;5.82;;;22.70;69.00;;;;;;6229639;28;87964;-59
2023/12/03 08:41:13;;;;;;;6.05;5.45;;;22.70;69.00;;;;;;6197749;28;89957;-60
2023/12/03 08:44:17;;;;;;;7.45;5.95;;;22.70;69.10;;;;;;6219469;28;88950;-60
2023/12/03 08:47:19;;;;;;;6.47;5.70;;;22.70;69.10;;;;;;6213906;28;89231;-60
2023/12/03 08:50:26;;;;;;;6.05;5.40;;;22.70;69.10;;;;;;6207486;28;89054;-60
2023/12/03 08:53:28;;;;;;;6.50;5.80;;;22.70;69.10;;;;;;6223235;28;88999;-60
2023/12/03 08:56:30;;;;;;;6.82;6.00;;;22.80;69.10;;;;;;6215221;28;88917;-60
2023/12/03 08:59:34;;;;;;;6.53;5.55;;;22.70;69.10;;;;;;6214326;28;89501;-60
2023/12/03 09:02:36;;;;;;;5.72;5.13;;;22.70;69.10;;;;;;6229730;28;88369;-60
2023/12/03 09:05:38;;;;;;;6.03;5.43;;;22.70;69.10;;;;;;6228251;28;89101;-60
2023/12/03 09:08:40;;;;;;;6.00;5.40;;;22.80;69.10;;;;;;6215715;28;88986;-60
2023/12/03 09:11:43;;;;;;;6.03;5.43;;;22.80;69.10;;;;;;6232915;28;90046;-60
2023/12/03 09:14:47;;;;;;;5.93;5.32;;;22.80;69.20;;;;;;6213807;28;87954;-60
2023/12/03 09:17:49;;;;;;;8.23;6.28;;;22.80;69.10;;;;;;6233888;28;88956;-60
2023/12/03 09:20:51;;;;;;;7.18;5.85;;;22.80;69.10;;;;;;6229830;28;89483;-60
2023/12/03 09:23:54;;;;;;;6.47;5.25;;;22.80;69.10;;;;;;6233239;28;89301;-60
2023/12/03 09:26:56;;;;;;;5.75;5.15;;;22.80;69.20;;;;;;6227084;28;89189;-60
2023/12/03 09:29:59;;;;;;;7.03;5.63;;;22.80;69.20;;;;;;6228973;28;89070;-60
2023/12/03 09:33:01;;;;;;;6.65;5.72;;;22.80;69.20;;;;;;6241752;28;88341;-60
2023/12/03 09:36:03;;;;;;;7.32;5.63;;;22.80;69.20;;;;;;6243032;28;88980;-60
2023/12/03 09:39:05;;;;;;;7.60;5.88;;;22.80;69.20;;;;;;6216332;28;88000;-60
2023/12/03 09:42:08;;;;;;;5.90;5.03;;;22.80;69.20;;;;;;6210826;28;92352;-59
2023/12/03 09:45:13;;;;;;;6.35;5.50;;;22.80;69.30;;;;;;6213654;28;88853;-60
2023/12/03 09:48:21;;;;;;;6.80;5.47;;;22.80;69.20;;;;;;6229407;28;89110;-60
2023/12/03 09:51:23;;;;;;;5.50;4.88;;;22.80;69.20;;;;;;6214406;28;87896;-60
2023/12/03 09:54:26;;;;;;;8.02;5.88;;;22.80;69.10;;;;;;6223197;28;89729;-59
2023/12/03 09:57:29;;;;;;;6.18;5.40;;;22.80;69.20;;;;;;6214100;28;89057;-59
2023/12/03 10:00:33;;;;;;;7.35;5.45;;;22.80;69.20;;;;;;6232969;28;89057;-59
2023/12/03 10:03:35;;;;;;;6.25;4.90;;;22.90;69.30;;;;;;6223274;28;88380;-60
2023/12/03 10:06:43;;;;;;;5.35;4.75;;;22.90;69.30;;;;;;6227951;28;89074;-60
2023/12/03 10:09:46;;;;;;;8.38;5.53;;;22.90;69.30;;;;;;6219495;28;88939;-60
2023/12/03 10:12:50;;;;;;;5.97;4.80;;;22.90;69.30;;;;;;6220047;28;90223;-60
2023/12/03 10:15:54;;;;;;;5.40;4.90;;;22.90;69.30;;;;;;6241038;28;88825;-60
2023/12/03 10:18:56;;;;;;;5.97;4.85;;;22.90;69.30;;;;;;6220964;28;89055;-60
2023/12/03 10:21:59;;;;;;;5.32;4.63;;;22.90;69.30;;;;;;6234178;28;89195;-60
2023/12/03 10:25:01;;;;;;;5.80;4.90;;;22.90;69.40;;;;;;6208236;28;89025;-60
2023/12/03 10:28:05;;;;;;;6.20;4.75;;;22.90;69.40;;;;;;6225171;28;89132;-60
2023/12/03 10:31:12;;;;;;;4.93;4.40;;;22.90;69.40;;;;;;6232463;28;88992;-60
2023/12/03 10:34:14;;;;;;;5.88;4.90;;;22.90;69.40;;;;;;6226441;28;88346;-60
2023/12/03 10:37:16;;;;;;;5.95;4.65;;;22.90;69.40;;;;;;6216919;28;89018;-59
2023/12/03 10:40:20;;;;;;;4.97;4.47;;;22.90;69.40;;;;;;6215393;28;89509;-60
2023/12/03 10:43:24;;;;;;;4.82;4.30;;;22.90;69.40;;;;;;6215300;28;89967;-60
2023/12/03 10:46:27;;;;;;;4.50;4.10;;;23.00;69.50;;;;;;6236883;28;89081;-60
2023/12/03 10:49:32;;;;;;;4.90;4.38;;;22.90;69.40;;;;;;6238188;28;89148;-60
2023/12/03 10:52:35;;;;;;;5.85;4.72;;;23.00;69.50;;;;;;6231918;28;87941;-60
2023/12/03 10:55:37;;;;;;;5.88;4.85;;;23.00;69.50;;;;;;6226745;28;89021;-60
2023/12/03 10:58:41;;;;;;;7.25;5.15;;;22.90;69.40;;;;;;6228021;28;89082;-60
2023/12/03 11:01:48;;;;;;;6.93;4.85;;;23.00;69.50;;;;;;6218420;28;88897;-60
2023/12/03 11:04:59;;;;;;;6.57;4.40;;;22.90;69.40;;;;;;6229305;28;88270;-60
2023/12/03 11:08:03;;;;;;;6.18;4.63;;;22.90;69.50;;;;;;6231577;28;89180;-60
2023/12/03 11:11:06;;;;;;;4.90;4.40;;;22.90;69.50;;;;;;6245856;28;89105;-60
2023/12/03 11:14:08;;;;;;;4.97;4.20;;;22.90;69.40;;;;;;6231515;28;90019;-60
2023/12/03 11:17:17;;;;;;;4.57;4.15;;;22.90;69.50;;;;;;6221134;28;89333;-60
2023/12/03 11:20:24;;;;;;;4.25;3.85;;;22.90;69.50;;;;;;6228142;28;88513;-60
2023/12/03 11:23:40;;;;;;;4.78;4.30;;;22.90;69.40;;;;;;6220168;28;89014;-60
2023/12/03 11:26:42;;;;;;;4.53;4.03;;;23.00;69.50;;;;;;6221381;28;89043;-60
2023/12/03 11:29:49;;;;;;;5.25;4.10;;;22.90;69.50;;;;;;6243288;28;88993;-60
2023/12/03 11:32:54;;;;;;;7.22;4.72;;;23.00;69.50;;;;;;6225368;28;89269;-60
2023/12/03 11:36:00;;;;;;;6.28;4.55;;;23.00;69.50;;;;;;6226677;28;88402;-60
2023/12/03 11:39:02;;;;;;;5.43;4.00;;;23.00;69.50;;;;;;6209389;28;89399;-60
2023/12/03 11:42:06;;;;;;;5.15;4.03;;;23.00;69.50;;;;;;6226116;28;89198;-60
2023/12/03 11:45:22;;;;;;;4.72;4.07;;;23.00;69.60;;;;;;6232321;28;90050;-60
2023/12/03 11:48:27;;;;;;;4.68;4.10;;;23.00;69.60;;;;;;6222716;28;89137;-60
2023/12/03 11:51:29;;;;;;;4.75;4.03;;;22.90;69.50;;;;;;6213631;28;89048;-60
2023/12/03 11:54:38;;;;;;;4.32;3.88;;;22.90;69.50;;;;;;6230319;28;88990;-60
2023/12/03 11:57:41;;;;;;;4.53;3.70;;;23.00;69.60;;;;;;6227862;28;88994;-60
2023/12/03 12:00:45;;;;;;;5.45;4.38;;;23.00;69.60;;;;;;6228356;28;88961;-60
2023/12/03 12:03:49;;;;;;;6.25;4.40;;;23.00;69.60;;;;;;6228855;28;89222;-60
2023/12/03 12:06:51;;;;;;;4.80;3.88;;;23.00;69.60;;;;;;6220455;28;88304;-59
2023/12/03 12:09:53;;;;;;;4.30;3.78;;;23.00;69.60;;;;;;6191376;28;90119;-60
2023/12/03 12:12:56;;;;;;;7.00;4.45;;;23.00;69.50;;;;;;6220246;28;89020;-60
2023/12/03 12:15:58;;;;;;;5.20;4.10;;;23.00;69.50;;;;;;6229662;28;90020;-60
2023/12/03 12:19:04;;;;;;;4.10;3.38;;;23.00;69.60;;;;;;6223162;28;89203;-60
2023/12/03 12:22:06;;;;;;;3.97;3.58;;;23.00;69.60;;;;;;6218676;28;89067;-60
2023/12/03 12:25:12;;;;;;;4.47;3.70;;;23.00;69.60;;;;;;6230610;28;89008;-60
2023/12/03 12:28:14;;;;;;;4.57;3.80;;;22.90;69.50;;;;;;6221507;28;89057;-60
2023/12/03 12:31:18;;;;;;;4.57;3.67;;;22.90;69.50;;;;;;6210078;28;89168;-60
2023/12/03 12:34:24;;;;;;;4.10;3.50;;;23.00;69.50;;;;;;6227319;28;89027;-60
2023/12/03 12:37:26;;;;;;;4.10;3.53;;;23.00;69.50;;;;;;6217855;28;88463;-60
2023/12/03 12:40:28;;;;;;;4.15;3.72;;;23.00;69.40;;;;;;6226926;28;89614;-60
2023/12/03 12:43:30;;;;;;;3.72;3.38;;;23.00;69.40;;;;;;6215032;28;89203;-60
2023/12/03 12:46:32;;;;;;;4.10;3.70;;;23.00;69.40;;;;;;6230085;28;89969;-60
2023/12/03 12:49:36;;;;;;;4.20;3.65;;;23.00;69.40;;;;;;6211745;28;89163;-60
2023/12/03 12:52:38;;;;;;;3.45;3.15;;;23.00;69.40;;;;;;6230986;28;87958;-60
2023/12/03 12:55:41;;;;;;;7.82;4.43;;;22.90;69.30;;;;;;6236622;28;89062;-60
2023/12/03 12:58:44;;;;;;;5.05;3.83;;;23.00;69.40;;;;;;6216711;28;87059;-60
2023/12/03 13:01:48;;;;;;;4.13;3.38;;;22.90;69.30;;;;;;6231548;28;87970;-60
2023/12/03 13:04:55;;;;;;;3.88;3.33;;;22.90;69.40;;;;;;6225736;28;88248;-60
2023/12/03 13:07:59;;;;;;;4.50;3.55;;;23.00;69.30;;;;;;6225600;28;87378;-60
2023/12/03 13:11:06;;;;;;;4.05;3.50;;;23.00;69.30;;;;;;6226800;28;88386;-60
2023/12/03 13:14:09;;;;;;;3.72;3.25;;;23.00;69.40;;;;;;6225608;28;88298;-60
2023/12/03 13:17:12;;;;;;;3.20;2.90;;;23.00;69.30;;;;;;6242900;28;89407;-59
2023/12/03 13:20:17;;;;;;;3.75;3.35;;;23.00;69.30;;;;;;6229629;28;87713;-60
2023/12/03 13:23:20;;;;;;;3.92;3.20;;;23.00;69.40;;;;;;6227184;28;89099;-60
2023/12/03 13:26:24;;;;;;;3.25;2.95;;;23.00;69.40;;;;;;6237235;28;89070;-60
2023/12/03 13:29:28;;;;;;;3.97;3.30;;;23.00;69.40;;;;;;6233619;28;87122;-60
2023/12/03 13:32:31;;;;;;;3.50;3.08;;;23.00;69.40;;;;;;6233519;28;87985;-58
2023/12/03 13:35:35;;;;;;;4.10;3.30;;;23.00;69.30;;;;;;6235821;28;90733;-58
2023/12/03 13:38:39;;;;;;;3.95;3.10;;;23.00;69.40;;;;;;6236791;28;88320;-59
2023/12/03 13:41:42;;;;;;;4.40;3.08;;;23.00;70.40;;;;;;6233573;28;89293;-59
2023/12/03 13:44:44;;;;;;;3.30;2.92;;;23.00;69.50;;;;;;6228035;28;89816;-59
2023/12/03 13:47:47;;;;;;;8.13;4.18;;;22.90;69.60;;;;;;6224488;28;90421;-59
2023/12/03 13:50:52;;;;;;;4.70;3.22;;;23.00;69.70;;;;;;6198133;28;88773;-58
2023/12/03 13:53:54;;;;;;;9.52;4.63;;;22.90;69.70;;;;;;6206682;28;89384;-59
2023/12/03 13:56:56;;;;;;;4.25;3.05;;;22.90;69.80;;;;;;6214209;28;89452;-59
2023/12/03 13:59:58;;;;;;;3.67;2.83;;;22.90;69.90;;;;;;6201755;28;89140;-59
2023/12/03 14:03:00;;;;;;;5.00;3.40;;;22.90;70.00;;;;;;6198572;28;89629;-59
2023/12/03 14:06:05;;;;;;;4.85;3.35;;;22.90;70.00;;;;;;6197779;28;89522;-59
2023/12/03 14:09:07;;;;;;;5.20;3.30;;;22.90;70.10;;;;;;6193420;28;88519;-59
2023/12/03 14:12:09;;;;;;;4.72;2.80;;;23.00;70.10;;;;;;6193381;28;89168;-59
2023/12/03 14:15:14;;;;;;;5.32;3.10;;;23.00;70.20;;;;;;6195029;28;89070;-59
2023/12/03 14:18:19;;;;;;;7.00;3.90;;;23.00;70.30;;;;;;6200965;28;90062;-59
2023/12/03 14:21:23;;;;;;;3.33;2.60;;;22.90;70.10;;;;;;6197884;28;87917;-60
2023/12/03 14:24:25;;;;;;;4.57;2.75;;;22.90;70.20;;;;;;6200369;28;87968;-60
2023/12/03 14:27:27;;;;;;;6.82;3.67;;;22.90;70.10;;;;;;6201595;28;89063;-60
2023/12/03 14:30:29;;;;;;;5.72;3.35;;;22.90;70.20;;;;;;6199840;28;88092;-60
2023/12/03 14:33:31;;;;;;;4.00;3.00;;;23.00;70.20;;;;;;6201062;28;88289;-59
2023/12/03 14:36:34;;;;;;;3.72;2.97;;;23.00;70.30;;;;;;6192726;28;89089;-60
2023/12/03 14:39:36;;;;;;;3.40;2.85;;;22.90;70.10;;;;;;6201370;28;88379;-60
2023/12/03 14:42:38;;;;;;;5.70;3.47;;;22.90;70.10;;;;;;6216017;28;87955;-60
2023/12/03 14:45:40;;;;;;;3.28;2.50;;;22.90;70.10;;;;;;6237472;28;89112;-60
2023/12/03 14:48:43;;;;;;;3.03;2.67;;;22.90;70.10;;;;;;6224215;28;90040;-60
2023/12/03 14:51:48;;;;;;;4.43;2.90;;;23.00;70.10;;;;;;6225878;28;88711;-60
2023/12/03 14:54:50;;;;;;;7.13;3.83;;;22.90;70.10;;;;;;6218266;28;89039;-60
2023/12/03 14:57:52;;;;;;;3.72;2.70;;;23.00;70.10;;;;;;6230185;28;89177;-60
2023/12/03 15:00:54;;;;;;;3.22;2.65;;;23.00;70.10;;;;;;6227021;28;89051;-60
2023/12/03 15:03:58;;;;;;;3.28;2.95;;;22.90;70.00;;;;;;6230875;28;89022;-60
2023/12/03 15:07:02;;;;;;;2.97;2.63;;;22.90;69.80;;;;;;6232841;28;87910;-60
2023/12/03 15:10:05;;;;;;;3.60;3.10;;;22.90;68.90;;;;;;6229266;28;87212;-60
2023/12/03 15:13:08;;;;;;;4.53;3.33;;;23.00;68.40;;;;;;6221847;28;87979;-59
2023/12/03 15:16:11;;;;;;;5.75;3.58;;;22.90;67.70;;;;;;6227994;28;89639;-60
2023/12/03 15:19:13;;;;;;;4.07;3.30;;;22.90;67.20;;;;;;6216872;28;90065;-59
2023/12/03 15:22:17;;;;;;;6.35;3.95;;;22.90;66.80;;;;;;6230124;28;89226;-60
2023/12/03 15:25:19;;;;;;;4.55;3.60;;;22.90;66.40;;;;;;6219928;28;89113;-59
2023/12/03 15:28:21;;;;;;;3.63;3.20;;;22.90;66.10;;;;;;6236118;28;89052;-60
2023/12/03 15:31:23;;;;;;;4.72;3.20;;;22.90;65.80;;;;;;6231674;28;89021;-60
2023/12/03 15:34:25;;;;;;;5.20;3.40;;;22.90;66.10;;;;;;6214266;28;89078;-60
2023/12/03 15:37:31;;;;;;;3.38;2.97;;;22.90;66.60;;;;;;6218009;28;88987;-60
2023/12/03 15:40:33;;;;;;;3.10;2.80;;;22.90;66.90;;;;;;6216526;28;88364;-60
2023/12/03 15:43:35;;;;;;;3.67;2.97;;;22.90;67.10;;;;;;6219764;28;89340;-59
2023/12/03 15:46:38;;;;;;;3.05;2.55;;;22.90;67.20;;;;;;6211240;28;89124;-60